CGDTH CWPP-CYVO

Flight info

Callsign CGDTH
Flight time N/A
Altitude 16000
Route CYPP CYVO
Aircraft B350/L-V/N

Departure

Time N/A
Airport CWPP

Arrival

Time 2026-04-15 17:05
Airport Val-d'Or Airport (CYVO)
Time Latitude Longitude Altitude Speed Heading
2026-04-15 16:20 47.97763 -74.80929 8231 ft 157 kts 261°
2026-04-15 16:20 47.97653 -74.82522 8675 ft 155 kts 261°
2026-04-15 16:20 47.97543 -74.84121 9126 ft 154 kts 261°
2026-04-15 16:21 47.97431 -74.85715 9576 ft 153 kts 261°
2026-04-15 16:21 47.97318 -74.87296 10024 ft 153 kts 261°
2026-04-15 16:21 47.97203 -74.88867 10475 ft 152 kts 261°
2026-04-15 16:21 47.97085 -74.90435 10923 ft 152 kts 261°
2026-04-15 16:22 47.96964 -74.91990 11373 ft 151 kts 261°
2026-04-15 16:22 47.96839 -74.93544 11824 ft 150 kts 261°
2026-04-15 16:22 47.96755 -74.94571 12122 ft 150 kts 261°
2026-04-15 16:22 47.96625 -74.96113 12573 ft 149 kts 262°
2026-04-15 16:23 47.96494 -74.97645 13023 ft 149 kts 261°
2026-04-15 16:23 47.96362 -74.99175 13474 ft 148 kts 261°
2026-04-15 16:23 47.96231 -75.00697 13925 ft 148 kts 261°
2026-04-15 16:23 47.96099 -75.02217 14378 ft 147 kts 262°
2026-04-15 16:24 47.95965 -75.03727 14828 ft 146 kts 261°
2026-04-15 16:24 47.95829 -75.05232 15279 ft 146 kts 261°
2026-04-15 16:24 47.95695 -75.06730 15730 ft 145 kts 262°
2026-04-15 16:24 47.95556 -75.08268 15942 ft 159 kts 261°
2026-04-15 16:25 47.95401 -75.09984 16014 ft 175 kts 262°
2026-04-15 16:25 47.95233 -75.11861 16009 ft 190 kts 262°
2026-04-15 16:25 47.95056 -75.13872 16002 ft 200 kts 262°
2026-04-15 16:25 47.94872 -75.15979 15998 ft 208 kts 262°
2026-04-15 16:26 47.94683 -75.18151 15996 ft 214 kts 262°
2026-04-15 16:26 47.94488 -75.20372 15995 ft 217 kts 262°
2026-04-15 16:26 47.94289 -75.22624 15993 ft 220 kts 262°
2026-04-15 16:26 47.94088 -75.24899 15991 ft 222 kts 262°
2026-04-15 16:27 47.93888 -75.27159 15991 ft 223 kts 262°
2026-04-15 16:27 47.93687 -75.29458 15991 ft 224 kts 262°
2026-04-15 16:27 47.93488 -75.31777 15990 ft 225 kts 262°
2026-04-15 16:27 47.93290 -75.34099 15989 ft 226 kts 262°
2026-04-15 16:28 47.93092 -75.36419 15988 ft 226 kts 262°
2026-04-15 16:28 47.92892 -75.38753 15989 ft 227 kts 262°
2026-04-15 16:28 47.92693 -75.41083 15988 ft 227 kts 262°
2026-04-15 16:28 47.92494 -75.43417 15988 ft 227 kts 262°
2026-04-15 16:29 47.92297 -75.45749 15987 ft 227 kts 262°
2026-04-15 16:29 47.92101 -75.48087 15986 ft 227 kts 262°
2026-04-15 16:29 47.91907 -75.50422 15987 ft 227 kts 262°
2026-04-15 16:29 47.91717 -75.52763 15985 ft 227 kts 262°
2026-04-15 16:30 47.91528 -75.55102 15985 ft 227 kts 262°
2026-04-15 16:30 47.91342 -75.57410 15984 ft 227 kts 262°
2026-04-15 16:30 47.91153 -75.59750 15977 ft 227 kts 262°
2026-04-15 16:30 47.90968 -75.62096 15975 ft 227 kts 262°
2026-04-15 16:31 47.90781 -75.64445 15977 ft 227 kts 262°
2026-04-15 16:31 47.90593 -75.66786 15977 ft 227 kts 262°
2026-04-15 16:31 47.90402 -75.69124 15978 ft 227 kts 262°
2026-04-15 16:31 47.90213 -75.71465 15977 ft 227 kts 262°
2026-04-15 16:32 47.90023 -75.73780 15976 ft 227 kts 262°
2026-04-15 16:32 47.89829 -75.76114 15976 ft 227 kts 262°
2026-04-15 16:32 47.89636 -75.78451 15976 ft 227 kts 262°
2026-04-15 16:32 47.89446 -75.80783 15976 ft 227 kts 262°
2026-04-15 16:33 47.89255 -75.83124 15975 ft 227 kts 262°
2026-04-15 16:33 47.89066 -75.85465 15974 ft 227 kts 262°
2026-04-15 16:33 47.88878 -75.87799 15974 ft 227 kts 262°
2026-04-15 16:33 47.88690 -75.90132 15973 ft 227 kts 262°
2026-04-15 16:34 47.88505 -75.92457 15973 ft 226 kts 262°
2026-04-15 16:34 47.88323 -75.94789 15972 ft 226 kts 262°
2026-04-15 16:34 47.88141 -75.97108 15972 ft 225 kts 262°
2026-04-15 16:34 47.87957 -75.99426 15971 ft 225 kts 262°
2026-04-15 16:35 47.87776 -76.01736 15932 ft 226 kts 262°
2026-04-15 16:35 47.87590 -76.04092 15735 ft 232 kts 262°
2026-04-15 16:35 47.87401 -76.06508 15491 ft 238 kts 262°
2026-04-15 16:35 47.87206 -76.08975 15242 ft 241 kts 263°
2026-04-15 16:36 47.87009 -76.11478 14992 ft 245 kts 262°
2026-04-15 16:36 47.86808 -76.14009 14745 ft 248 kts 263°
2026-04-15 16:36 47.86600 -76.16574 14496 ft 250 kts 263°
2026-04-15 16:36 47.86396 -76.19114 14249 ft 251 kts 263°
2026-04-15 16:37 47.86184 -76.21706 13999 ft 252 kts 263°
2026-04-15 16:37 47.85971 -76.24301 13749 ft 253 kts 263°
2026-04-15 16:37 47.85757 -76.26902 13498 ft 253 kts 263°
2026-04-15 16:37 47.85543 -76.29499 13249 ft 253 kts 263°
2026-04-15 16:38 47.85331 -76.32111 12998 ft 253 kts 263°
2026-04-15 16:38 47.85199 -76.34726 12750 ft 254 kts 265°
2026-04-15 16:38 47.85312 -76.37346 12507 ft 254 kts 276°
2026-04-15 16:38 47.85552 -76.39961 12257 ft 254 kts 276°
2026-04-15 16:39 47.85791 -76.42570 12007 ft 254 kts 276°
2026-04-15 16:39 47.86030 -76.45179 11756 ft 254 kts 276°
2026-04-15 16:39 47.86268 -76.47795 11505 ft 254 kts 276°
2026-04-15 16:39 47.86505 -76.50404 11255 ft 254 kts 276°
2026-04-15 16:40 47.86742 -76.53018 11004 ft 254 kts 276°
2026-04-15 16:40 47.86975 -76.55599 10758 ft 255 kts 275°
2026-04-15 16:40 47.87212 -76.58235 10505 ft 255 kts 275°
2026-04-15 16:40 47.87446 -76.60859 10253 ft 255 kts 275°
2026-04-15 16:41 47.87676 -76.63446 10005 ft 255 kts 275°
2026-04-15 16:41 47.87907 -76.66066 9755 ft 255 kts 275°
2026-04-15 16:41 47.88138 -76.68690 9506 ft 256 kts 275°
2026-04-15 16:41 47.88369 -76.71318 9254 ft 256 kts 275°
2026-04-15 16:42 47.88597 -76.73942 9005 ft 256 kts 275°
2026-04-15 16:42 47.88823 -76.76587 8754 ft 256 kts 274°
2026-04-15 16:42 47.89045 -76.79224 8505 ft 257 kts 274°
2026-04-15 16:42 47.89266 -76.81863 8254 ft 257 kts 274°
2026-04-15 16:43 47.89483 -76.84502 8004 ft 257 kts 274°
2026-04-15 16:43 47.89699 -76.87143 7753 ft 256 kts 274°
2026-04-15 16:43 47.89941 -76.89781 7498 ft 257 kts 279°
2026-04-15 16:43 47.90493 -76.92324 7255 ft 259 kts 289°
2026-04-15 16:44 47.91227 -76.94781 7006 ft 260 kts 292°
2026-04-15 16:44 47.92023 -76.97200 6755 ft 260 kts 293°
2026-04-15 16:44 47.92838 -76.99612 6505 ft 260 kts 294°
2026-04-15 16:44 47.93659 -77.02021 6254 ft 260 kts 294°
2026-04-15 16:45 47.94476 -77.04417 6005 ft 260 kts 294°
2026-04-15 16:45 47.95295 -77.06823 5755 ft 260 kts 294°
2026-04-15 16:45 47.96104 -77.09201 5507 ft 260 kts 294°
2026-04-15 16:45 47.96920 -77.11605 5257 ft 260 kts 294°
2026-04-15 16:46 47.97735 -77.14017 5007 ft 260 kts 294°
2026-04-15 16:46 47.98549 -77.16431 4755 ft 260 kts 294°
2026-04-15 16:46 47.99363 -77.18852 4505 ft 261 kts 294°
2026-04-15 16:46 48.00173 -77.21269 4256 ft 261 kts 294°
2026-04-15 16:47 48.00979 -77.23687 4020 ft 260 kts 294°
2026-04-15 16:47 48.01778 -77.26088 3898 ft 255 kts 294°
2026-04-15 16:47 48.02558 -77.28443 3851 ft 250 kts 294°
2026-04-15 16:47 48.03343 -77.30724 3841 ft 245 kts 297°
2026-04-15 16:48 48.04217 -77.32894 3839 ft 242 kts 300°
2026-04-15 16:48 48.05111 -77.34985 3838 ft 240 kts 301°
2026-04-15 16:48 48.06014 -77.37058 3837 ft 238 kts 301°
2026-04-15 16:48 48.06926 -77.39135 3837 ft 236 kts 301°
2026-04-15 16:49 48.07824 -77.41175 3837 ft 234 kts 301°
2026-04-15 16:49 48.08715 -77.43201 3838 ft 233 kts 301°
2026-04-15 16:49 48.09608 -77.45229 3838 ft 232 kts 301°
2026-04-15 16:49 48.10426 -77.47310 3838 ft 231 kts 295°
2026-04-15 16:50 48.11055 -77.49507 3838 ft 230 kts 289°
2026-04-15 16:50 48.11588 -77.51767 3838 ft 229 kts 286°
2026-04-15 16:50 48.12058 -77.54016 3838 ft 229 kts 285°
2026-04-15 16:50 48.12517 -77.56302 3836 ft 229 kts 284°
2026-04-15 16:51 48.12970 -77.58588 3837 ft 229 kts 284°
2026-04-15 16:51 48.13423 -77.60868 3836 ft 229 kts 284°
2026-04-15 16:51 48.13985 -77.63101 3831 ft 231 kts 298°
2026-04-15 16:51 48.15114 -77.64802 3837 ft 234 kts 326°
2026-04-15 16:52 48.16657 -77.65543 3839 ft 237 kts 354°
2026-04-15 16:52 48.18304 -77.65457 3844 ft 238 kts
2026-04-15 16:52 48.19952 -77.65152 3838 ft 238 kts
2026-04-15 16:52 48.21603 -77.64926 3837 ft 238 kts
2026-04-15 16:53 48.23262 -77.64822 3837 ft 238 kts 359°
2026-04-15 16:53 48.24918 -77.64906 3837 ft 238 kts 355°
2026-04-15 16:53 48.26547 -77.65089 3837 ft 238 kts 353°
2026-04-15 16:53 48.28184 -77.65370 3838 ft 237 kts 352°
2026-04-15 16:54 48.29831 -77.65621 3838 ft 237 kts 353°
2026-04-15 16:54 48.31434 -77.66135 3860 ft 235 kts 338°
2026-04-15 16:54 48.32919 -77.67134 3897 ft 233 kts 331°
2026-04-15 16:54 48.34221 -77.68549 3905 ft 231 kts 315°
2026-04-15 16:55 48.35311 -77.70285 3905 ft 230 kts 308°
2026-04-15 16:55 48.36248 -77.72268 3906 ft 229 kts 300°
2026-04-15 16:55 48.37048 -77.74292 3900 ft 218 kts 298°
2026-04-15 16:55 48.37705 -77.76220 3890 ft 203 kts 287°
2026-04-15 16:56 48.38052 -77.78204 3901 ft 191 kts 279°
2026-04-15 16:56 48.38189 -77.80134 3891 ft 181 kts 263°
2026-04-15 16:56 48.37982 -77.81951 3903 ft 174 kts 255°
2026-04-15 16:56 48.37689 -77.83690 3901 ft 170 kts 253°
2026-04-15 16:57 48.37387 -77.85384 3903 ft 166 kts 253°
2026-04-15 16:57 48.37074 -77.87050 3898 ft 164 kts 248°
2026-04-15 16:57 48.36392 -77.88353 3897 ft 159 kts 211°
2026-04-15 16:57 48.35340 -77.88664 3936 ft 154 kts 173°
2026-04-15 16:58 48.34398 -77.87981 3946 ft 152 kts 148°
2026-04-15 16:58 48.33568 -77.86964 3912 ft 154 kts 142°
2026-04-15 16:58 48.32711 -77.86028 3901 ft 151 kts 154°
2026-04-15 16:58 48.31729 -77.85540 3905 ft 148 kts 169°
2026-04-15 16:59 48.30718 -77.85256 3902 ft 147 kts 172°
2026-04-15 16:59 48.29709 -77.85002 3903 ft 147 kts 172°
2026-04-15 16:59 48.28690 -77.84817 3901 ft 147 kts 175°
2026-04-15 16:59 48.27669 -77.84660 3901 ft 147 kts 175°
2026-04-15 17:00 48.26666 -77.84481 3901 ft 147 kts 175°
2026-04-15 17:00 48.25650 -77.84255 3900 ft 147 kts 173°
2026-04-15 17:00 48.24643 -77.83990 3905 ft 147 kts 172°
2026-04-15 17:00 48.23636 -77.83682 3898 ft 148 kts 170°
2026-04-15 17:01 48.22627 -77.83350 3900 ft 149 kts 169°
2026-04-15 17:01 48.21615 -77.83003 3902 ft 150 kts 170°
2026-04-15 17:01 48.20593 -77.82665 3906 ft 150 kts 170°
2026-04-15 17:01 48.19560 -77.82338 3839 ft 154 kts 170°
2026-04-15 17:02 48.18489 -77.82026 3674 ft 160 kts 171°
2026-04-15 17:02 48.17367 -77.81720 3426 ft 166 kts 171°
2026-04-15 17:02 48.16222 -77.81415 3141 ft 167 kts 171°
2026-04-15 17:02 48.15078 -77.81108 2861 ft 165 kts 170°
2026-04-15 17:03 48.13996 -77.80800 2591 ft 151 kts 169°
2026-04-15 17:03 48.13024 -77.80506 2341 ft 135 kts 168°
2026-04-15 17:03 48.12197 -77.80253 2270 ft 104 kts 168°
2026-04-15 17:03 48.11480 -77.80044 2116 ft 110 kts 168°
2026-04-15 17:04 48.10708 -77.79820 2002 ft 116 kts 168°
2026-04-15 17:04 48.09907 -77.79594 1853 ft 118 kts 168°
2026-04-15 17:04 48.09104 -77.79370 1689 ft 119 kts 168°
2026-04-15 17:04 48.08292 -77.79138 1519 ft 117 kts 167°
2026-04-15 17:05 48.07512 -77.78885 1412 ft 112 kts 166°
2026-04-15 17:05 48.06773 -77.78685 1241 ft 102 kts 168°
2026-04-15 17:05 48.06140 -77.78515 1112 ft 79 kts 163°
2026-04-15 17:05 48.05714 -77.78366 1111 ft 36 kts 169°
2026-04-15 17:06 48.05599 -77.78337 1111 ft 0 kts 171°